Tiempo atmosférico en la estación meteorológica de La Pobla de Benifassà-Fredes, Castelló/Castellón (1174 m.)



Fecha
DESCASC
Temp. máxima en grados centígrados (hora)
DESCASC
Temp. mínima en grados centígrados (hora)
DESCASC
Temp. media en grados centígrados
DESCASC
Racha de viento máxima en m/sg (hora)
DESCASC
Velocidad máxima media en intervalos de 10 minutos(hora)
DESCASC
Precipitaciones diarias en mm
DESCASC
Precipitaciones de 00:00 a 06:00 en mm
DESCASC
Precipitaciones de 06:00 a 12:00 en mm
DESCASC
Precipitaciones de 12:00 a 18:00 en mm
DESCASC
Precipitaciones de 18:00 a 24:00 en mm
DESCASC
20-09-2018 22.9 (15:00) 14.1 (05:10) 18.5 6.11 (15:40) 2.78 (16:20) 0.2 0.2 0 0 0
19-09-2018 21 (13:40) 13.2 (04:10) 17.1 5.83 (08:20) 3.89 (08:20) 0.2 0.2 0 0 0
18-09-2018 19.7 (14:00) 12.1 (07:30) 15.9 6.67 (02:50) 3.33 (02:30) 9 7.2 0 1.8 0
17-09-2018 19.4 (14:10) 13 (07:00) 16.2 8.33 (15:30) 3.89 (16:00) 1.8 0.2 0 0 1.6
16-09-2018 20.7 (16:50) 12.3 (00:00) 16.5 5.28 (17:00) 2.5 (16:50) 0 0 0 0 0
15-09-2018 17.7 (11:30) 12.4 (00:00) 15.1 5.83 (16:00) 2.78 (16:00) 2 0 0 1.6 0.4
14-09-2018 21.5 (14:00) 13 (00:00) 17.3 8.61 (05:40) 5.28 (03:00) 0 0 0 0 0
13-09-2018 22.7 (15:50) 13.6 (00:00) 18.2 16.94 (07:00) 10.83 (07:00) 0 0 0 0 0
12-09-2018 19.3 (11:30) 12.3 (00:00) 15.8 7.5 (23:50) 4.72 (23:40) 16.2 0 0 16.2 0
11-09-2018 19.7 (16:00) 13.9 (00:00) 16.8 7.22 (14:10) 3.33 (16:40) 0 0 0 0 0
10-09-2018 20.5 (15:30) 13.1 (00:00) 16.8 6.94 (05:20) 4.72 (05:10) 0.2 0.2 0 0 0
09-09-2018 20 (12:20) 13 (00:00) 16.5 7.5 (17:10) 3.89 (17:20) 0.2 0 0 0.2 0
08-09-2018 18.3 (12:10) 12.7 (00:00) 15.5 8.33 (11:50) 3.33 (12:00) 3.2 0 0 3.2 0
07-09-2018 20 (13:50) 10.7 (00:00) 15.3 10.83 (05:20) 6.39 (04:30) 0 0 0 0 0
06-09-2018 18.8 (17:20) 12.9 (00:00) 15.8 10.56 (23:30) 6.11 (23:30) 0.2 0.2 0 0 0
05-09-2018 19.9 (13:40) 13.2 (00:00) 16.5 10 (17:40) 4.72 (18:00) 16.6 0 0 6 10.6
04-09-2018 22.5 (13:40) 14.2 (00:00) 18.3 8.61 (15:10) 3.89 (14:40) 0.2 0.2 0 0 0
03-09-2018 23.3 (13:10) 13.2 (00:00) 18.2 19.72 (20:40) 8.89 (20:40) 5.2 0 0 2.4 2.8
02-09-2018 24 (14:20) 13.7 (00:00) 18.8 6.94 (17:10) 3.33 (06:50) 0 0 0 0 0
01-09-2018 23.9 (13:30) 13.3 (00:00) 18.6 8.33 (06:10) 5.83 (06:10) 0 0 0 0 0
31-08-2018 21.8 (15:00) 13.5 (00:00) 17.6 8.33 (06:40) 5.83 (07:50) 0 0 0 0 0
30-08-2018 22.2 (16:20) 13.4 (00:00) 17.8 7.5 (03:00) 5 (02:50) 0 0 0 0 0
29-08-2018 23.9 (14:20) 15.4 (00:00) 19.6 13.33 (01:50) 6.94 (02:00) 0.8 0.8 0 0 0
28-08-2018 24.4 (14:20) 16.7 (00:00) 20.6 11.39 (16:40) 5.28 (22:10) 6.8 0 0 6.8 0
27-08-2018 24 (13:50) 15.3 (00:00) 19.7 6.67 (16:50) 3.61 (17:20) 0 0 0 0 0
26-08-2018 21.9 (15:10) 10.6 (00:00) 16.3 10.83 (02:40) 6.94 (02:30) 0 0 0 0 0
25-08-2018 23.4 (16:20) 10.5 (00:00) 16.9 13.33 (09:40) 8.33 (09:40) 0 0 0 0 0
24-08-2018 24.7 (16:40) 13.1 (00:00) 18.9 15.28 (01:40) 8.89 (06:20) 0 0 0 0 0
23-08-2018 24.7 (12:50) 16.3 (00:00) 20.5 10 (23:59) 6.11 (23:59) 1 0 0 0.8 0.2

Gráficas

Temp. máximas Temp. mínimas Temp. medias Precipitaciones Rachas de viento máximas Velocidades máximas media en intervalos de 10 minutos

Datos horarios

Fecha y hora oficial Temperatura (ºC) Velocidad del viento (km/h) Dirección del viento Racha (km/h) Dirección de racha Precipitación (mm) Presión (hPa) Tendencia (hPa) Humedad (%)
2018-09-21 23:00:00 18.4 20 Noroeste 33 Noroeste 0 -- -- 63
2018-09-21 22:00:00 19.2 12 Oeste 17 Noroeste 0 -- -- 63
2018-09-21 21:00:00 19.8 9 Noroeste 14 Noroeste 0 -- -- 61
2018-09-21 20:00:00 20.5 9 Noroeste 15 Noroeste 0 -- -- 59
2018-09-21 19:00:00 22 2 Sur 7 Sudeste 0 -- -- 69
2018-09-21 18:00:00 23.1 4 Este 11 Este 0 -- -- 68
2018-09-21 17:00:00 25 4 Norte 27 Noroeste 0 -- -- 53
2018-09-21 16:00:00 24.9 12 Noroeste 25 Noroeste 0 -- -- 48
2018-09-21 15:00:00 24.9 11 Noroeste 24 Noroeste 0 -- -- 50
2018-09-21 14:00:00 25.4 9 Noroeste 21 Norte 0 -- -- 51
2018-09-21 13:00:00 24.4 13 Noroeste 24 Noroeste 0 -- -- 53
2018-09-21 12:00:00 23.3 12 Noroeste 29 Noroeste 0 -- -- 57
2018-09-21 11:00:00 22.2 13 Oeste 23 Oeste 0 -- -- 59
2018-09-21 10:00:00 20.9 10 Oeste 17 Noroeste 0 -- -- 64
2018-09-21 09:00:00 18.4 8 Noroeste 14 Oeste 0 -- -- 72
2018-09-21 08:00:00 16.6 9 Oeste 16 Oeste 0 -- -- 75
2018-09-21 07:00:00 16.1 11 Oeste 15 Oeste 0 -- -- 76
2018-09-21 06:00:00 16 5 Noroeste 7 Oeste 0 -- -- 76
2018-09-21 05:00:00 17.1 5 Sur 7 Sudeste 0 -- -- 71
2018-09-21 04:00:00 16.2 4 Sur 6 Sur 0 -- -- 76
2018-09-21 03:00:00 17.2 4 Sur 9 Sur 0 -- -- 75
2018-09-21 02:00:00 16.5 4 Sur 10 Sudoeste 0 -- -- 79
2018-09-21 01:00:00 16.4 8 Sudoeste 11 Sudoeste 0 -- -- 82
2018-09-21 00:00:00 15.9 8 Sudoeste 12 Sudoeste 0 -- -- 89
2018-09-20 23:00:00 16.5 7 Sudoeste 13 Sudoeste 0 -- -- 92
2018-09-20 22:00:00 17 0 Calma 9 Sudeste 0 -- -- 90
2018-09-20 21:00:00 17.5 2 Sur 8 Sur 0 -- -- 89
2018-09-20 20:00:00 18.2 2 Sur 7 Sudoeste 0 -- -- 90
2018-09-20 19:00:00 19.3 3 Este 16 Este 0 -- -- 87
2018-09-20 18:00:00 20.6 7 Este 22 Este 0 -- -- 80
2018-09-20 17:00:00 21.6 10 Este 22 Este 0 -- -- 79
2018-09-20 16:00:00 22.1 9 Este 22 Este 0 -- -- 76
2018-09-20 15:00:00 22.9 9 Este 19 Este 0 -- -- 73
2018-09-20 14:00:00 22.7 9 Este 18 Este 0 -- -- 72
2018-09-20 13:00:00 22.5 8 Este 17 Este 0 -- -- 69
2018-09-20 12:00:00 22 6 Este 15 Este 0 -- -- 67
2018-09-20 11:00:00 21.3 5 Este 10 Este 0 -- -- 67
2018-09-20 10:00:00 19.8 3 Este 8 Nordeste 0 -- -- 72
2018-09-20 09:00:00 16.6 2 Noroeste 5 Oeste 0 -- -- 81
2018-09-20 08:00:00 14.8 4 Noroeste 5 Noroeste 0 -- -- 85
2018-09-20 07:00:00 14.5 4 Noroeste 9 Oeste 0 -- -- 85
2018-09-20 06:00:00 14.6 7 Oeste 10 Sudoeste 0.2 -- -- 92
2018-09-20 05:00:00 14.2 6 Sudoeste 8 Sudoeste 0 -- -- 93
2018-09-20 04:00:00 14.3 5 Sudoeste 8 Sur 0 -- -- 93
2018-09-20 03:00:00 14.5 4 Sur 5 Sur 0 -- -- 96
2018-09-20 02:00:00 14.8 2 Sur 5 Oeste 0 -- -- 98
2018-09-20 01:00:00 15.3 3 Sur 6 Sur 0 -- -- 98
2018-09-20 00:00:00 15.5 0 Calma 5 Sudeste 0 -- -- 97
2018-09-19 23:00:00 16 2 Este 6 Sudeste 0 -- -- 98
2018-09-19 22:00:00 15.5 0 Calma 5 Sur 0 -- -- 98
2018-09-19 21:00:00 15.8 4 Oeste 8 Oeste 0 -- -- 96
2018-09-19 20:00:00 17.3 3 Sur 6 Este 0 -- -- 95
2018-09-19 19:00:00 17.9 4 Este 10 Este 0 -- -- 96
2018-09-19 18:00:00 18.8 7 Este 13 Este 0 -- -- 92
2018-09-19 17:00:00 19.6 7 Este 14 Este 0 -- -- 89
2018-09-19 16:00:00 20.2 8 Este 19 Este 0 -- -- 84
2018-09-19 15:00:00 20.7 6 Este 15 Este 0 -- -- 84
2018-09-19 14:00:00 20.7 7 Este 16 Este 0 -- -- 82
2018-09-19 13:00:00 20.1 6 Este 16 Oeste 0 -- -- 84
2018-09-19 12:00:00 20 7 Nordeste 20 Noroeste 0 -- -- 75
2018-09-19 11:00:00 19 6 Norte 16 Noroeste 0 -- -- 75
2018-09-19 10:00:00 17 6 Oeste 16 Oeste 0 -- -- 92
2018-09-19 09:00:00 15.2 3 Sudoeste 21 Oeste 0 -- -- 96
2018-09-19 08:00:00 14 13 Oeste 20 Oeste 0 -- -- 98
2018-09-19 07:00:00 14 11 Oeste 18 Oeste 0 -- -- 98
2018-09-19 06:00:00 13.6 8 Oeste 14 Oeste 0.2 -- -- 99
2018-09-19 05:00:00 13.3 4 Noroeste 10 Oeste 0 -- -- 96
2018-09-19 04:00:00 13.3 6 Oeste 9 Oeste 0 -- -- 97
2018-09-19 03:00:00 14.3 2 Sudeste 14 Oeste 0 -- -- 94
2018-09-19 02:00:00 14.5 12 Oeste 17 Oeste 0 -- -- 98
2018-09-19 01:00:00 14.4 3 Oeste 12 Noroeste 0 -- -- 98
2018-09-19 00:00:00 14.7 9 Noroeste 15 Noroeste 0 -- -- 99
2018-09-18 23:00:00 14.4 8 Oeste 13 Oeste 0 -- -- 100
2018-09-18 22:00:00 14.5 9 Oeste 14 Oeste 0 -- -- 100
2018-09-18 21:00:00 14.8 3 Sudoeste 5 Sudoeste 0 -- -- 100
2018-09-18 20:00:00 15.6 3 Sudeste 8 Este 0 -- -- 100
2018-09-18 19:00:00 15.8 2 Este 15 Este 0 -- -- 100
2018-09-18 18:00:00 15.9 8 Este 22 Este 0 -- -- 100
2018-09-18 17:00:00 16.7 8 Este 21 Este 0.8 -- -- 99
2018-09-18 16:00:00 17.7 6 Este 19 Este 1 -- -- 96
2018-09-18 15:00:00 19.6 10 Este 23 Este 0 -- -- 84
2018-09-18 14:00:00 19.7 7 Este 15 Este 0 -- -- 86
2018-09-18 13:00:00 19 4 Este 16 Este 0 -- -- 84
2018-09-18 12:00:00 18 6 Este 16 Este 0 -- -- 84
2018-09-18 11:00:00 16.2 4 Este 9 Este 0 -- -- 87
2018-09-18 10:00:00 15.6 5 Este 10 Este 0 -- -- 91
2018-09-18 09:00:00 13.5 3 Sudeste 9 Este 0 -- -- 98
2018-09-18 08:00:00 12.2 6 Sudoeste 13 Sudoeste 0 -- -- 97
2018-09-18 07:00:00 12.6 6 Sur 9 Sur 0 -- -- 95
2018-09-18 06:00:00 12.6 2 Sudeste 12 Sur 0.6 -- -- 100
2018-09-18 05:00:00 12.8 2 Este 9 Sudeste 2.4 -- -- 100
2018-09-18 04:00:00 13.7 5 Sudeste 23 Este 3.4 -- -- 100
2018-09-18 03:00:00 15.4 10 Este 24 Este 0.4 -- -- 100
2018-09-18 02:00:00 15.5 2 Sudeste 15 Sur 0 -- -- 100
2018-09-18 01:00:00 16.2 5 Sudeste 15 Sudeste 0.4 -- -- 100
2018-09-18 00:00:00 16.4 6 Este 12 Este 1.6 -- -- 100
2018-09-17 23:00:00 16.2 0 Calma 12 Sudeste 0 -- -- 100
2018-09-17 22:00:00 16.2 4 Este 19 Sudeste 0 -- -- 100
2018-09-17 21:00:00 16.3 9 Este 21 Este 0 -- -- 100
2018-09-17 20:00:00 16.3 8 Este 27 Este 0 -- -- 100
2018-09-17 19:00:00 16.7 8 Este 26 Este 0 -- -- 100
2018-09-17 18:00:00 17.1 12 Este 22 Este 0 -- -- 98
2018-09-17 17:00:00 17.1 12 Este 29 Este 0 -- -- 98
2018-09-17 16:00:00 17.6 14 Este 30 Este 0 -- -- 96
2018-09-17 15:00:00 18.6 10 Este 26 Este 0 -- -- 90
2018-09-17 14:00:00 19.2 10 Este 23 Este 0 -- -- 84
2018-09-17 13:00:00 18.4 10 Este 19 Nordeste 0 -- -- 87
2018-09-17 12:00:00 17.7 10 Este 20 Este 0 -- -- 90
2018-09-17 11:00:00 18.4 9 Este 18 Este 0 -- -- 84
2018-09-17 10:00:00 18 8 Este 13 Este 0 -- -- 85
2018-09-17 09:00:00 16.5 5 Este 11 Este 0 -- -- 95
2018-09-17 08:00:00 13.5 2 Este 4 Este 0 -- -- 99
2018-09-17 07:00:00 13 4 Oeste 5 Oeste 0 -- -- 99
2018-09-17 06:00:00 13.2 0 Calma 5 Sur 0.2 -- -- 99
2018-09-17 05:00:00 13.8 0 Calma 8 Este 0 -- -- 99
2018-09-17 04:00:00 14.2 0 Calma 6 Sur 0 -- -- 99
2018-09-17 03:00:00 14.5 0 Calma 8 Este 0 -- -- 100
2018-09-17 02:00:00 14 3 Sur 8 Sudeste 0 -- -- 99
2018-09-17 01:00:00 14 2 Sudeste 5 Este 0 -- -- 98
2018-09-17 00:00:00 14.9 0 Calma 5 Este 0 -- -- 97
2018-09-16 23:00:00 16.1 0 Calma 10 Este 0 -- -- 98
2018-09-16 22:00:00 16.5 3 Este 10 Este 0 -- -- 99
2018-09-16 21:00:00 16 0 Calma 5 Oeste 0 -- -- 96
2018-09-16 20:00:00 17.3 0 Calma 12 Este 0 -- -- 95
2018-09-16 19:00:00 17.8 6 Este 15 Este 0 -- -- 96
2018-09-16 18:00:00 19.2 7 Este 15 Este 0 -- -- 91
2018-09-16 17:00:00 20.6 9 Este 19 Este 0 -- -- 83
2018-09-16 16:00:00 20 8 Este 15 Este 0 -- -- 85
2018-09-16 15:00:00 19.9 8 Sudeste 17 Este 0 -- -- 84
2018-09-16 14:00:00 19.7 5 Este 13 Este 0 -- -- 84
2018-09-16 13:00:00 19.7 8 Este 18 Este 0 -- -- 87
2018-09-16 12:00:00 19 5 Sudeste 14 Sudeste 0 -- -- 84
2018-09-16 11:00:00 17.4 4 Este 9 Este 0 -- -- 88
2018-09-16 10:00:00 15.8 0 Calma 4 Oeste 0 -- -- 89
2018-09-16 09:00:00 14.7 0 Calma 10 Noroeste 0 -- -- 95
2018-09-16 08:00:00 12.8 0 Calma 6 Oeste 0 -- -- 98
2018-09-16 07:00:00 12.6 5 Oeste 6 Oeste 0 -- -- 99
2018-09-16 06:00:00 12.9 4 Oeste 8 Oeste 0 -- -- 99
2018-09-16 05:00:00 12.8 0 Calma 2 Este 0 -- -- 99
2018-09-16 04:00:00 12.7 0 Calma 4 Este 0 -- -- 98
2018-09-16 03:00:00 12.3 2 Noroeste 5 Sudeste 0 -- -- 98
2018-09-16 02:00:00 12.6 4 Este 8 Este 0 -- -- 98
2018-09-16 01:00:00 12.5 0 Calma 11 Este 0 -- -- 99
2018-09-16 00:00:00 12.4 3 Este 8 Sudeste 0 -- -- 98
2018-09-15 23:00:00 13.1 0 Calma 9 Sudeste 0 -- -- 97
2018-09-15 22:00:00 13.3 0 Calma 9 Sudeste 0 -- -- 96
2018-09-15 21:00:00 13.1 2 Sudeste 9 Nordeste 0 -- -- 96
2018-09-15 20:00:00 13.9 3 Oeste 13 Este 0 -- -- 96
2018-09-15 19:00:00 15.1 5 Este 16 Este 0.4 -- -- 100
2018-09-15 18:00:00 15.3 8 Este 21 Este 1.6 -- -- 100
2018-09-15 17:00:00 15.2 7 Este 19 Este 0 -- -- 99
2018-09-15 16:00:00 15.7 10 Este 21 Este 0 -- -- 97
2018-09-15 15:00:00 16.4 8 Este 15 Este 0 -- -- 96
2018-09-15 14:00:00 17.1 3 Este 12 Este 0 -- -- 92
2018-09-15 13:00:00 17.5 5 Este 12 Este 0 -- -- 88
2018-09-15 12:00:00 17.5 3 Este 12 Este 0 -- -- 87
2018-09-15 11:00:00 17.3 4 Nordeste 9 Oeste 0 -- -- 87
2018-09-15 10:00:00 15.5 2 Este 6 Oeste 0 -- -- 95
2018-09-15 09:00:00 14.2 3 Oeste 7 Oeste 0 -- -- 96
2018-09-15 08:00:00 13.8 5 Oeste 6 Sudoeste 0 -- -- 94
2018-09-15 07:00:00 14.4 0 Calma 5 Sur 0 -- -- 98
2018-09-15 06:00:00 14.6 0 Calma 5 Sudeste 0 -- -- 97
2018-09-15 05:00:00 14.9 2 Este 6 Norte 0 -- -- 94
2018-09-15 04:00:00 15.6 3 Este 8 Este 0 -- -- 96
2018-09-15 03:00:00 15.4 3 Norte 5 Norte 0 -- -- 95
2018-09-15 02:00:00 15.9 0 Calma -- -- 0 -- -- 92
2018-09-15 01:00:00 16.4 0 Calma 4 Sudeste 0 -- -- 90
2018-09-15 00:00:00 15.9 0 Calma 5 Sudoeste 0 -- -- 90
2018-09-14 23:00:00 15.9 6 Sudoeste 9 Oeste 0 -- -- 95
2018-09-14 22:00:00 16.2 8 Oeste 10 Oeste 0 -- -- 97
2018-09-14 21:00:00 17.1 4 Oeste 6 Sudoeste 0 -- -- 94
2018-09-14 20:00:00 18.3 0 Calma 8 Este 0 -- -- 94
2018-09-14 19:00:00 19 4 Este 11 Este 0 -- -- 94
2018-09-14 18:00:00 19.9 6 Este 13 Este 0 -- -- 89
2018-09-14 17:00:00 20.8 4 Este 15 Este 0 -- -- 82
2018-09-14 16:00:00 21 7 Este 18 Este 0 -- -- 79
2018-09-14 15:00:00 21 9 Este 21 Este 0 -- -- 76
2018-09-14 14:00:00 21.5 8 Este 18 Este 0 -- -- 75
2018-09-14 13:00:00 20.7 9 Este 19 Este 0 -- -- 72
2018-09-14 12:00:00 20.8 4 Este 15 Nordeste 0 -- -- 67
2018-09-14 11:00:00 19.3 3 Este 8 Este 0 -- -- 62
2018-09-14 10:00:00 17 6 Oeste 12 Oeste 0 -- -- 67
2018-09-14 09:00:00 15.3 8 Oeste 15 Oeste 0 -- -- 73
2018-09-14 08:00:00 13.2 11 Noroeste 18 Oeste 0 -- -- 79
2018-09-14 07:00:00 13.5 14 Oeste 25 Noroeste 0 -- -- 80
2018-09-14 06:00:00 13.1 16 Oeste 31 Noroeste 0 -- -- 84
2018-09-14 05:00:00 13.2 18 Oeste 26 Oeste 0 -- -- 87
2018-09-14 04:00:00 13.1 15 Oeste 26 Oeste 0 -- -- 86
2018-09-14 03:00:00 14.4 19 Oeste 28 Oeste 0 -- -- 80
2018-09-14 02:00:00 14.4 12 Oeste 26 Oeste 0 -- -- 81
2018-09-14 01:00:00 14.4 13 Oeste 22 Noroeste 0 -- -- 82
2018-09-14 00:00:00 14.5 12 Oeste 19 Noroeste 0 -- -- 79
2018-09-13 23:00:00 14.5 9 Oeste 14 Oeste 0 -- -- 78
2018-09-13 22:00:00 14.5 6 Oeste 9 Oeste 0 -- -- 79
2018-09-13 21:00:00 15.5 6 Oeste 10 Oeste 0 -- -- 76
2018-09-13 20:00:00 17.7 5 Noroeste 13 Noroeste 0 -- -- 72
2018-09-13 19:00:00 19.2 3 Sudeste 14 Este 0 -- -- 83
2018-09-13 18:00:00 20.5 6 Este 15 Este 0 -- -- 80
2018-09-13 17:00:00 22 4 Sudeste 13 Nordeste 0 -- -- 74
2018-09-13 16:00:00 22.6 3 Sudeste 18 Sudoeste 0 -- -- 68
2018-09-13 15:00:00 22.1 10 Oeste 18 Sudoeste 0 -- -- 65
2018-09-13 14:00:00 20.4 7 Oeste 13 Oeste 0 -- -- 71
2018-09-13 13:00:00 19.3 8 Oeste 25 Noroeste 0 -- -- 77
2018-09-13 12:00:00 17.8 15 Noroeste 28 Oeste 0 -- -- 84
2018-09-13 11:00:00 16.7 18 Oeste 34 Noroeste 0 -- -- 87
2018-09-13 10:00:00 15.3 24 Oeste 40 Oeste 0 -- -- 89
2018-09-13 09:00:00 14.2 22 Oeste 37 Noroeste 0 -- -- 94
2018-09-13 08:00:00 13.7 17 Noroeste 60 Noroeste 0 -- -- 93
2018-09-13 07:00:00 13.7 39 Noroeste 61 Oeste 0 -- -- 94
2018-09-13 06:00:00 14 31 Noroeste 54 Noroeste 0 -- -- 93
2018-09-13 05:00:00 14.2 21 Noroeste 44 Oeste 0 -- -- 91
2018-09-13 04:00:00 14.5 23 Noroeste 38 Noroeste 0 -- -- 88
2018-09-13 03:00:00 14.5 20 Noroeste 32 Noroeste 0 -- -- 87
2018-09-13 02:00:00 14.6 14 Oeste 30 Oeste 0 -- -- 87
2018-09-13 01:00:00 14.7 19 Noroeste 32 Oeste 0 -- -- 86
2018-09-13 00:00:00 14.2 15 Oeste 27 Noroeste 0 -- -- 89
2018-09-12 23:00:00 14.7 15 Oeste 21 Oeste 0 -- -- 95
2018-09-12 22:00:00 15 10 Oeste 15 Oeste 0 -- -- 93
2018-09-12 21:00:00 15.7 7 Oeste 12 Oeste 0 -- -- 95
2018-09-12 20:00:00 16.9 5 Oeste 8 Oeste 0 -- -- 94
2018-09-12 19:00:00 17.6 3 Sudeste 10 Este 0 -- -- 91
2018-09-12 18:00:00 17.5 3 Sudeste 17 Este 0 -- -- 95
2018-09-12 17:00:00 18.7 2 Este 8 Sudeste 0 -- -- 93
2018-09-12 16:00:00 16.8 4 Sudeste 9 Oeste 0.4 -- -- 98
2018-09-12 15:00:00 15.9 5 Oeste 14 Oeste 12.4 -- -- 98
2018-09-12 14:00:00 17 4 Este 9 Este 3.2 -- -- 93
2018-09-12 13:00:00 17.7 5 Este 17 Este 0.2 -- -- 88
2018-09-12 12:00:00 18.3 8 Este 20 Este 0 -- -- 85
2018-09-12 11:00:00 17.7 5 Sudoeste 13 Sudoeste 0 -- -- 85
2018-09-12 10:00:00 16 3 Sudeste 8 Este 0 -- -- 93
2018-09-12 09:00:00 15.5 0 Calma 9 Sudoeste 0 -- -- 95
2018-09-12 08:00:00 14.4 3 Sur 9 Sudeste 0 -- -- 97
2018-09-12 07:00:00 14.1 4 Sur 9 Sudeste 0 -- -- 98
2018-09-12 06:00:00 13.8 2 Sudeste 8 Este 0 -- -- 97
2018-09-12 05:00:00 12.5 0 Calma 5 Este 0 -- -- 97
2018-09-12 04:00:00 12.4 2 Este 7 Sudeste 0 -- -- 95
2018-09-12 03:00:00 12.9 2 Este 10 Nordeste 0 -- -- 94
2018-09-12 02:00:00 13.6 5 Este 13 Sudeste 0 -- -- 91
2018-09-12 01:00:00 14.1 3 Este 10 Este 0 -- -- 93
2018-09-12 00:00:00 14.7 3 Este 13 Este 0 -- -- 95
2018-09-11 23:00:00 15.2 2 Este 8 Este 0 -- -- 96
2018-09-11 22:00:00 16 4 Sur 10 Sudeste 0 -- -- 95
2018-09-11 21:00:00 16.2 5 Este 19 Este 0 -- -- 97
2018-09-11 20:00:00 16.6 6 Este 18 Este 0 -- -- 95
2018-09-11 19:00:00 17.2 6 Este 25 Nordeste 0 -- -- 92
2018-09-11 18:00:00 18.6 10 Este 23 Este 0 -- -- 82
2018-09-11 17:00:00 18.8 8 Este 23 Este 0 -- -- 82
2018-09-11 16:00:00 19.7 10 Este 23 Este 0 -- -- 79
2018-09-11 15:00:00 19.2 8 Este 26 Sudeste 0 -- -- 79
2018-09-11 14:00:00 19.2 10 Este 23 Este 0 -- -- 75
2018-09-11 13:00:00 18.3 9 Este 19 Este 0 -- -- 76
2018-09-11 12:00:00 18.1 8 Este 18 Este 0 -- -- 76
2018-09-11 11:00:00 18.3 6 Este 20 Este 0 -- -- 71
2018-09-11 10:00:00 17.3 5 Norte 12 Norte 0 -- -- 77
2018-09-11 09:00:00 16.2 7 Nordeste 13 Nordeste 0 -- -- 81
2018-09-11 08:00:00 15.8 5 Nordeste 9 Nordeste 0 -- -- 86
2018-09-11 07:00:00 15.9 5 Nordeste 10 Nordeste 0 -- -- 85
2018-09-11 06:00:00 16.2 4 Nordeste 9 Norte 0 -- -- 82
2018-09-11 05:00:00 16.3 3 Nordeste 9 Nordeste 0 -- -- 77
2018-09-11 04:00:00 16.3 4 Nordeste 12 Nordeste 0 -- -- 74
2018-09-11 03:00:00 16.1 5 Nordeste 8 Nordeste 0 -- -- 74
2018-09-11 02:00:00 14.8 2 Nordeste 5 Nordeste 0 -- -- 78
2018-09-11 01:00:00 14.5 0 Calma 4 Este 0 -- -- 78
2018-09-11 00:00:00 13.9 3 Este 6 Este 0 -- -- 78
2018-09-10 23:00:00 14.4 4 Nordeste 12 Este 0 -- -- 76
2018-09-10 22:00:00 15.3 9 Este 17 Este 0 -- -- 73
2018-09-10 21:00:00 15.2 5 Este 8 Este 0 -- -- 90
2018-09-10 20:00:00 15.5 0 Calma 8 Este 0 -- -- 88
2018-09-10 19:00:00 16 4 Este 16 Este 0 -- -- 83
2018-09-10 18:00:00 16.8 10 Este 24 Este 0 -- -- 83
2018-09-10 17:00:00 18.3 10 Este 23 Este 0 -- -- 79
2018-09-10 16:00:00 20.4 8 Este 22 Este 0 -- -- 70
2018-09-10 15:00:00 20.1 10 Este 21 Este 0 -- -- 69
2018-09-10 14:00:00 19.5 7 Este 19 Sudeste 0 -- -- 72
2018-09-10 13:00:00 16.9 4 Nordeste 13 Este 0 -- -- 79
2018-09-10 12:00:00 16.1 8 Noroeste 16 Noroeste 0 -- -- 86
2018-09-10 11:00:00 15.2 5 Oeste 14 Noroeste 0 -- -- 90
2018-09-10 10:00:00 14.4 7 Noroeste 15 Noroeste 0 -- -- 91
2018-09-10 09:00:00 13.8 6 Noroeste 14 Noroeste 0 -- -- 96
2018-09-10 08:00:00 13.6 11 Oeste 23 Oeste 0 -- -- 98
2018-09-10 07:00:00 13.8 6 Noroeste 18 Oeste 0 -- -- 98
2018-09-10 06:00:00 13.7 7 Noroeste 25 Oeste 0 -- -- 98
2018-09-10 05:00:00 13.7 15 Oeste 24 Oeste 0 -- -- 97
2018-09-10 04:00:00 13.2 8 Oeste 11 Oeste 0 -- -- 91
2018-09-10 03:00:00 14.2 3 Este 9 Este 0.2 -- -- 88
2018-09-10 02:00:00 14.4 3 Norte 8 Oeste 0 -- -- 93
2018-09-10 01:00:00 14.4 6 Oeste 10 Oeste 0 -- -- 95
2018-09-10 00:00:00 14.9 3 Nordeste 10 Norte 0 -- -- 96
2018-09-09 23:00:00 14.8 4 Nordeste 10 Este 0 -- -- 94
2018-09-09 22:00:00 14.7 4 Nordeste 10 Este 0 -- -- 94
2018-09-09 21:00:00 15.5 8 Este 13 Este 0 -- -- 97
2018-09-09 20:00:00 15.7 7 Este 15 Este 0 -- -- 95
2018-09-09 19:00:00 15.4 5 Este 11 Este 0 -- -- 80
2018-09-09 18:00:00 14.8 8 Este 27 Norte 0.2 -- -- 83
2018-09-09 17:00:00 17.1 5 Este 16 Sudeste 0 -- -- 96
2018-09-09 16:00:00 17.5 9 Este 23 Este 0 -- -- 94
2018-09-09 15:00:00 18.6 7 Este 24 Nordeste 0 -- -- 85
2018-09-09 14:00:00 19.4 7 Este 19 Sudeste 0 -- -- 83
2018-09-09 13:00:00 19.4 8 Este 15 Sudeste 0 -- -- 80
2018-09-09 12:00:00 19.3 4 Sudeste 14 Este 0 -- -- 76
2018-09-09 11:00:00 18.4 3 Sudoeste 10 Oeste 0 -- -- 83
2018-09-09 10:00:00 16.4 2 Oeste 9 Oeste 0 -- -- 86
2018-09-09 09:00:00 14.6 4 Oeste 9 Oeste 0 -- -- 93
2018-09-09 08:00:00 13.1 7 Oeste 9 Oeste 0 -- -- 96
2018-09-09 07:00:00 13.3 5 Sudoeste 10 Sudoeste 0 -- -- 95
2018-09-09 06:00:00 13.4 5 Sur 10 Sudoeste 0 -- -- 96
2018-09-09 05:00:00 14.2 0 Calma 12 Sudeste 0 -- -- 92
2018-09-09 04:00:00 13.9 5 Sur 12 Sudoeste 0 -- -- 92
2018-09-09 03:00:00 14 6 Sur 11 Sur 0 -- -- 97
2018-09-09 02:00:00 14.7 2 Sudeste 9 Sudeste 0 -- -- 99
2018-09-09 01:00:00 15.4 3 Sudeste 13 Sudeste 0 -- -- 100
2018-09-09 00:00:00 15.3 5 Sudeste 14 Sudeste 0 -- -- 100
2018-09-08 23:00:00 15.7 4 Sudeste 14 Sudeste 0 -- -- 100
2018-09-08 22:00:00 15.9 3 Sudeste 14 Sudeste 0 -- -- 99
2018-09-08 21:00:00 16.2 2 Sudeste 19 Este 0 -- -- 99
2018-09-08 20:00:00 16.6 5 Sudeste 15 Sudeste 0 -- -- 99
2018-09-08 19:00:00 16.9 3 Sudeste 17 Este 0 -- -- 98
2018-09-08 18:00:00 16.6 5 Este 17 Sudeste 0 -- -- 99
2018-09-08 17:00:00 17.2 6 Este 16 Este 0 -- -- 96
2018-09-08 16:00:00 16.5 5 Este 24 Este 0 -- -- 99
2018-09-08 15:00:00 16.3 9 Este 23 Sudeste 2.4 -- -- 98
2018-09-08 14:00:00 16.7 6 Sudeste 25 Este 0.8 -- -- 95
2018-09-08 13:00:00 17.8 11 Este 27 Este 0 -- -- 86
2018-09-08 12:00:00 18.2 12 Este 30 Este 0 -- -- 86
2018-09-08 11:00:00 16.8 10 Este 20 Este 0 -- -- 93
2018-09-08 10:00:00 15.4 5 Este 16 Este 0 -- -- 99
2018-09-08 09:00:00 14.9 7 Este 17 Este 0 -- -- 99
2018-09-08 08:00:00 14.2 5 Este 12 Este 0 -- -- 99
2018-09-08 07:00:00 13 0 Calma 5 Este 0 -- -- 98
2018-09-08 06:00:00 12.7 0 Calma 5 Sudeste 0 -- -- 96
2018-09-08 05:00:00 13.4 4 Sur 9 Sur 0 -- -- 92
2018-09-08 04:00:00 12.8 0 Calma 5 Sudeste 0 -- -- 96
2018-09-08 03:00:00 13.3 0 Calma 8 Sur 0 -- -- 94
2018-09-08 02:00:00 14.6 2 Sudeste 13 Sudeste 0 -- -- 91
2018-09-08 01:00:00 14.5 4 Sur 9 Sudeste 0 -- -- 92
2018-09-08 00:00:00 14.6 2 Sudeste 12 Sudeste 0 -- -- 92
2018-09-07 23:00:00 14.8 3 Sur 15 Sudeste 0 -- -- 89
2018-09-07 22:00:00 14.2 2 Sur 6 Este 0 -- -- 88
2018-09-07 21:00:00 15.4 2 Norte 14 Sudeste 0 -- -- 87
2018-09-07 20:00:00 16.3 4 Sudeste 14 Este 0 -- -- 84
2018-09-07 19:00:00 17 2 Este 17 Sudeste 0 -- -- 81
2018-09-07 18:00:00 18.1 8 Este 23 Sudeste 0 -- -- 77
2018-09-07 17:00:00 18.5 8 Este 21 Este 0 -- -- 75
2018-09-07 16:00:00 19.1 11 Este 24 Este 0 -- -- 73
2018-09-07 15:00:00 18.9 8 Este 20 Este 0 -- -- 72
2018-09-07 14:00:00 19.6 6 Este 19 Sudeste 0 -- -- 68
2018-09-07 13:00:00 18.8 5 Norte 16 Noroeste 0 -- -- 67
2018-09-07 12:00:00 17.8 8 Noroeste 19 Oeste 0 -- -- 68
2018-09-07 11:00:00 16.3 12 Oeste 25 Oeste 0 -- -- 75
2018-09-07 10:00:00 14 13 Oeste 34 Oeste 0 -- -- 85
2018-09-07 09:00:00 12.2 19 Noroeste 33 Oeste 0 -- -- 90
2018-09-07 08:00:00 10.8 23 Oeste 36 Oeste 0 -- -- 93
2018-09-07 07:00:00 10.8 18 Oeste 33 Oeste 0 -- -- 91
2018-09-07 06:00:00 11.3 22 Oeste 39 Oeste 0 -- -- 88
2018-09-07 05:00:00 11.5 19 Oeste 36 Oeste 0 -- -- 86
2018-09-07 04:00:00 11.9 21 Oeste 33 Oeste 0 -- -- 84
2018-09-07 03:00:00 12.5 21 Oeste 31 Noroeste 0 -- -- 82
2018-09-07 02:00:00 13.5 19 Oeste 30 Oeste 0 -- -- 77
2018-09-07 01:00:00 13.9 19 Oeste 32 Noroeste 0 -- -- 79
2018-09-07 00:00:00 14.3 20 Oeste 38 Oeste 0 -- -- 81
2018-09-06 23:00:00 14.7 21 Oeste 35 Oeste 0 -- -- 80
2018-09-06 22:00:00 15 20 Oeste 31 Oeste 0 -- -- 81
2018-09-06 21:00:00 15.1 15 Oeste 29 Oeste 0 -- -- 83
2018-09-06 20:00:00 15.9 16 Oeste 29 Noroeste 0 -- -- 81
2018-09-06 19:00:00 17.7 12 Oeste 25 Oeste 0 -- -- 78
2018-09-06 18:00:00 18.3 9 Oeste 19 Oeste -- -- -- 73
2018-09-06 17:00:00 18.4 9 Oeste 16 Noroeste 0 -- -- 74
2018-09-06 16:00:00 17.3 12 Noroeste 28 Oeste 0 -- -- 80
2018-09-06 15:00:00 15.2 12 Noroeste 21 Oeste 0 -- -- 93
2018-09-06 14:00:00 15.5 14 Oeste 21 Oeste 0 -- -- 91
2018-09-06 13:00:00 15.9 11 Noroeste 19 Noroeste 0 -- -- 91
2018-09-06 12:00:00 16.1 10 Noroeste 22 Noroeste 0 -- -- 91
2018-09-06 11:00:00 15.3 12 Noroeste 27 Oeste 0 -- -- 97
2018-09-06 10:00:00 13.7 14 Oeste 26 Oeste 0 -- -- 100
2018-09-06 09:00:00 13.1 15 Oeste 24 Noroeste 0 -- -- 100
2018-09-06 08:00:00 12.9 14 Noroeste 23 Oeste 0 -- -- 100
2018-09-06 07:00:00 13.3 12 Noroeste 22 Noroeste 0 -- -- 100
2018-09-06 06:00:00 13 8 Oeste 25 Oeste 0.2 -- -- 99
2018-09-06 05:00:00 13.3 18 Oeste 37 Oeste 0 -- -- 99
2018-09-06 04:00:00 13.3 21 Oeste 32 Noroeste 0 -- -- 99
2018-09-06 03:00:00 13.5 18 Oeste 33 Oeste 0 -- -- 99
2018-09-06 02:00:00 13.3 19 Oeste 29 Oeste 0 -- -- 99
2018-09-06 01:00:00 13.3 14 Oeste 29 Oeste 0 -- -- 98
2018-09-06 00:00:00 13.4 10 Oeste 15 Noroeste 0 -- -- 94
2018-09-05 23:00:00 13.6 9 Sur 15 Sur 0 -- -- 93
2018-09-05 22:00:00 13.2 6 Sur 18 Sudeste 0 -- -- 98
2018-09-05 21:00:00 14.9 3 Sudeste 26 Este 2.2 -- -- 99
2018-09-05 20:00:00 15 9 Sur 20 Nordeste 6.6 -- -- 99
2018-09-05 19:00:00 15.1 8 Nordeste 22 Este 1.8 -- -- 98
2018-09-05 18:00:00 14.9 17 Este 36 Oeste 1 -- -- 97
2018-09-05 17:00:00 16 11 Nordeste 25 Este 1.8 -- -- 98
2018-09-05 16:00:00 16.8 10 Este 22 Sudeste 2.4 -- -- 98
2018-09-05 15:00:00 18.2 11 Este 26 Nordeste 0.8 -- -- 93
2018-09-05 14:00:00 19.4 13 Este 23 Este 0 -- -- 89
2018-09-05 13:00:00 19.4 9 Este 21 Este 0 -- -- 88
2018-09-05 12:00:00 19.1 7 Este 22 Este 0 -- -- 87
2018-09-05 11:00:00 18.1 7 Este 17 Este 0 -- -- 93
2018-09-05 10:00:00 18.2 6 Este 13 Este 0 -- -- 92
2018-09-05 09:00:00 16.3 0 Calma 7 Sudeste 0 -- -- 99
2018-09-05 08:00:00 16 3 Este 9 Sur 0 -- -- 99
2018-09-05 07:00:00 15.5 3 Este 9 Este 0 -- -- 98
2018-09-05 06:00:00 15.3 3 Oeste 5 Sur 0 -- -- 98
2018-09-05 05:00:00 15.5 3 Sur 6 Sur 0 -- -- 98
2018-09-05 04:00:00 16.2 4 Sudoeste 12 Sur 0 -- -- 98
2018-09-05 03:00:00 16.2 3 Sur 13 Sudeste 0 -- -- 97
2018-09-05 02:00:00 16.7 3 Este 12 Este 0 -- -- 98
2018-09-05 01:00:00 17 3 Sudeste 17 Este 0 -- -- 98
2018-09-05 00:00:00 17.1 3 Sudeste 16 Este 0 -- -- 98
2018-09-04 23:00:00 17.4 5 Este 14 Este 0 -- -- 98
2018-09-04 22:00:00 17.7 4 Este 12 Sudeste 0 -- -- 97
2018-09-04 21:00:00 17.7 5 Este 15 Este 0 -- -- 96
2018-09-04 20:00:00 18.1 3 Este 14 Sudeste 0 -- -- 95
2018-09-04 19:00:00 18.6 6 Este 21 Este 0 -- -- 93
2018-09-04 18:00:00 19.1 12 Este 26 Este 0 -- -- 89
2018-09-04 17:00:00 20.1 11 Este 28 Sudeste 0 -- -- 82
2018-09-04 16:00:00 21.5 12 Este 31 Este 0 -- -- 74
2018-09-04 15:00:00 20.8 14 Este 30 Este 0 -- -- 76
2018-09-04 14:00:00 21.8 9 Este 23 Este 0 -- -- 70
2018-09-04 13:00:00 21.9 9 Este 20 Este 0 -- -- 69
2018-09-04 12:00:00 21.5 10 Este 18 Sudeste 0 -- -- 67
2018-09-04 11:00:00 21.6 8 Este 18 Sudeste 0 -- -- 58
2018-09-04 10:00:00 20.3 5 Sur 17 Sudoeste 0 -- -- 57
2018-09-04 09:00:00 19 3 Este 12 Sur 0 -- -- 60
2018-09-04 08:00:00 15 5 Sudoeste 14 Sudoeste 0 -- -- 67
2018-09-04 07:00:00 14.8 9 Sudoeste 16 Sur 0 -- -- 66
2018-09-04 06:00:00 15.4 6 Sur 11 Sur 0 -- -- 64
2018-09-04 05:00:00 14.3 2 Noroeste 9 Este 0.2 -- -- 81
2018-09-04 04:00:00 15.4 3 Este 15 Sudeste 0 -- -- 65
2018-09-04 03:00:00 15.8 5 Este 11 Este 0 -- -- 62
2018-09-04 02:00:00 16.4 2 Sudeste 17 Sudeste 0 -- -- 60
2018-09-04 01:00:00 16.8 9 Sur 18 Sur 0 -- -- 58
2018-09-04 00:00:00 15.3 3 Sur 15 Sudeste 0 -- -- 75
2018-09-03 23:00:00 15.9 3 Sudeste 20 Noroeste 0 -- -- 69
2018-09-03 22:00:00 14 16 Norte 40 Oeste 2.2 -- -- 77
2018-09-03 21:00:00 14.9 30 Sudoeste 71 Oeste 0.6 -- -- 81
2018-09-03 20:00:00 18.5 9 Sur 24 Sur 0 -- -- 96
2018-09-03 19:00:00 18.7 6 Este 20 Este 0 -- -- 96
2018-09-03 18:00:00 19.9 6 Sudeste 18 Sudeste 0.2 -- -- 91
2018-09-03 17:00:00 18.3 4 Este 23 Sur 0 -- -- 94
2018-09-03 16:00:00 17.6 3 Sudeste 22 Sudeste 1.2 -- -- 96
2018-09-03 15:00:00 19.7 6 Sudeste 23 Este 0.8 -- -- 95
2018-09-03 14:00:00 21.6 9 Nordeste 27 Oeste 0.2 -- -- 81
2018-09-03 13:00:00 23 5 Oeste 14 Oeste 0 -- -- 67
2018-09-03 12:00:00 19.8 9 Este 24 Este 0 -- -- 89
2018-09-03 11:00:00 19.4 8 Sudeste 21 Este 0 -- -- 87
2018-09-03 10:00:00 18.1 6 Sudeste 34 Oeste 0 -- -- 84
2018-09-03 09:00:00 17.4 8 Oeste 17 Oeste 0 -- -- 98
2018-09-03 08:00:00 17.1 0 Calma 9 Noroeste 0 -- -- 98
2018-09-03 07:00:00 17.1 2 Norte 9 Este 0 -- -- 98
2018-09-03 06:00:00 16.7 2 Este 10 Sudoeste 0 -- -- 97
2018-09-03 05:00:00 17 5 Oeste 10 Noroeste 0 -- -- 97
2018-09-03 04:00:00 17.7 2 Sudeste 15 Sudeste 0 -- -- 98
2018-09-03 03:00:00 17.8 3 Sudeste 12 Este 0 -- -- 98
2018-09-03 02:00:00 17.8 2 Este 5 Sudeste 0 -- -- 97
2018-09-03 01:00:00 18 0 Calma 8 Sur 0 -- -- 95
2018-09-03 00:00:00 18 0 Calma 4 Este 0 -- -- 95
2018-09-02 23:00:00 18.3 2 Este 7 Sudeste 0 -- -- 93
2018-09-02 22:00:00 18.1 2 Noroeste 6 Oeste 0 -- -- 93
2018-09-02 21:00:00 18.2 0 Calma 9 Este 0 -- -- 89
2018-09-02 20:00:00 19.6 3 Sudeste 10 Sudeste 0 -- -- 85
2018-09-02 19:00:00 20.1 2 Oeste 13 Este 0 -- -- 84
2018-09-02 18:00:00 20.6 6 Sudeste 25 Este 0 -- -- 82
2018-09-02 17:00:00 23.1 10 Este 23 Este 0 -- -- 75
2018-09-02 16:00:00 24 10 Este 23 Este 0 -- -- 69
2018-09-02 15:00:00 23.5 10 Este 22 Este 0 -- -- 67
2018-09-02 14:00:00 23.8 9 Este 21 Este 0 -- -- 61
2018-09-02 13:00:00 22.9 8 Este 19 Este 0 -- -- 64
2018-09-02 12:00:00 21.3 9 Este 19 Este 0 -- -- 68
2018-09-02 11:00:00 21.1 8 Este 18 Sudeste 0 -- -- 71
2018-09-02 10:00:00 19.1 3 Sudoeste 12 Oeste 0 -- -- 56
2018-09-02 09:00:00 16.7 10 Oeste 15 Oeste 0 -- -- 70
2018-09-02 08:00:00 15.2 6 Noroeste 15 Oeste 0 -- -- 78
2018-09-02 07:00:00 14.8 12 Oeste 17 Oeste 0 -- -- 96
2018-09-02 06:00:00 13.7 8 Noroeste 9 Noroeste 0 -- -- 96
2018-09-02 05:00:00 14.3 2 Noroeste 5 Nordeste 0 -- -- 97
2018-09-02 04:00:00 14.6 0 Calma 6 Sur 0 -- -- 96
2018-09-02 03:00:00 15.3 3 Sur 5 Este 0 -- -- 95
2018-09-02 02:00:00 16.9 2 Sur 8 Este 0 -- -- 96
2018-09-02 01:00:00 17.2 3 Sudeste 8 Sudeste 0 -- -- 98
2018-09-02 00:00:00 16.9 2 Este 7 Sur 0 -- -- 97
2018-09-01 23:00:00 16.7 0 Calma 6 Sur 0 -- -- 95
2018-09-01 22:00:00 17.5 4 Sur 6 Sur 0 -- -- 92
2018-09-01 21:00:00 18.8 3 Este 7 Este 0 -- -- 92
2018-09-01 20:00:00 19.6 0 Calma 10 Este 0 -- -- 90
2018-09-01 19:00:00 19.9 5 Este 13 Sudeste 0 -- -- 88
2018-09-01 18:00:00 21 8 Este 21 Sudeste 0 -- -- 81
2018-09-01 17:00:00 21.7 7 Este 21 Sudeste 0 -- -- 78
2018-09-01 16:00:00 22.8 9 Este 24 Este 0 -- -- 71
2018-09-01 15:00:00 22.5 12 Este 25 Este 0 -- -- 70
2018-09-01 14:00:00 22.7 10 Este 21 Este 0 -- -- 60
2018-09-01 13:00:00 23.2 8 Sudoeste 18 Sur 0 -- -- 56
2018-09-01 12:00:00 21.8 8 Oeste 23 Oeste 0 -- -- 57
2018-09-01 11:00:00 19.9 12 Oeste 24 Oeste 0 -- -- 63
2018-09-01 10:00:00 17.7 14 Oeste 25 Oeste 0 -- -- 72
2018-09-01 09:00:00 15.4 19 Oeste 25 Oeste 0 -- -- 79
2018-09-01 08:00:00 13.8 14 Oeste 30 Oeste 0 -- -- 82
2018-09-01 07:00:00 13.3 18 Oeste 30 Oeste 0 -- -- 84
2018-09-01 06:00:00 13.7 20 Oeste 29 Oeste 0 -- -- 84
2018-09-01 05:00:00 14.1 19 Oeste 28 Oeste 0 -- -- 83
2018-09-01 04:00:00 14.4 15 Oeste 23 Oeste 0 -- -- 81
2018-09-01 03:00:00 14.9 17 Oeste 27 Oeste 0 -- -- 80
2018-09-01 02:00:00 14.9 17 Oeste 26 Oeste 0 -- -- 79
2018-09-01 01:00:00 15.2 16 Oeste 23 Oeste 0 -- -- 77
2018-09-01 00:00:00 15 12 Oeste 18 Oeste 0 -- -- 82
2018-08-31 23:00:00 16.5 3 Oeste 9 Sur 0 -- -- 93
2018-08-31 22:00:00 17.2 0 Calma 6 Sudeste 0 -- -- 94
2018-08-31 21:00:00 17.8 2 Sur 5 Sudeste 0 -- -- 90
2018-08-31 20:00:00 19 2 Sudeste 9 Este 0 -- -- 84
2018-08-31 19:00:00 19.8 3 Este 13 Sudeste 0 -- -- 79
2018-08-31 18:00:00 20.8 5 Sur 19 Este 0 -- -- 73
2018-08-31 17:00:00 20.4 7 Este 15 Este 0 -- -- 70
2018-08-31 16:00:00 20.9 6 Este 18 Este 0 -- -- 67
2018-08-31 15:00:00 21.8 5 Este 22 Este 0 -- -- 63
2018-08-31 14:00:00 21 11 Este 28 Este -- -- -- 62
2018-08-31 13:00:00 20.1 9 Este 21 Este 0 -- -- 66
2018-08-31 12:00:00 20.8 9 Este 17 Este 0 -- -- 64
2018-08-31 11:00:00 19.5 2 Norte 20 Noroeste 0 -- -- 70
2018-08-31 10:00:00 17.1 11 Noroeste 26 Oeste 0 -- -- 71
2018-08-31 09:00:00 15.3 18 Oeste 26 Oeste 0 -- -- 75
2018-08-31 08:00:00 13.9 20 Oeste 30 Oeste 0 -- -- 80
2018-08-31 07:00:00 13.9 19 Oeste 30 Oeste 0 -- -- 80
2018-08-31 06:00:00 14.1 15 Oeste 25 Oeste 0 -- -- 83
2018-08-31 05:00:00 14.7 16 Oeste 22 Oeste 0 -- -- 85
2018-08-31 04:00:00 15.1 13 Oeste 23 Oeste 0 -- -- 84
2018-08-31 03:00:00 15.8 15 Oeste 24 Oeste 0 -- -- 88
2018-08-31 02:00:00 16.5 13 Oeste 22 Noroeste 0 -- -- 90
2018-08-31 01:00:00 16.8 3 Oeste 13 Noroeste 0 -- -- 94
2018-08-31 00:00:00 17.1 5 Oeste 13 Sudoeste 0 -- -- 96
2018-08-30 23:00:00 17.2 4 Oeste 8 Oeste 0 -- -- 96
2018-08-30 22:00:00 17.1 0 Calma 8 Sur 0 -- -- 93
2018-08-30 21:00:00 18.4 0 Calma 8 Sur 0 -- -- 94
2018-08-30 20:00:00 18.7 3 Sudeste 9 Este 0 -- -- 93
2018-08-30 19:00:00 18.9 3 Sudeste 16 Este 0 -- -- 93
2018-08-30 18:00:00 19.3 5 Sudeste 21 Este 0 -- -- 92
2018-08-30 17:00:00 20.7 9 Este 27 Este 0 -- -- 86
2018-08-30 16:00:00 22 6 Este 17 Sudeste 0 -- -- 77
2018-08-30 15:00:00 20.8 9 Este 25 Este 0 -- -- 81
2018-08-30 14:00:00 21.7 8 Este 23 Este 0 -- -- 73
2018-08-30 13:00:00 21.2 10 Este 22 Sudeste 0 -- -- 68
2018-08-30 12:00:00 21 6 Sudeste 21 Sudeste 0 -- -- 69
2018-08-30 11:00:00 19.9 8 Este 14 Este 0 -- -- 71
2018-08-30 10:00:00 17.2 8 Oeste 13 Oeste 0 -- -- 80
2018-08-30 09:00:00 14.9 9 Oeste 21 Oeste 0 -- -- 87
2018-08-30 08:00:00 13.5 15 Oeste 24 Oeste 0 -- -- 91
2018-08-30 07:00:00 13.9 15 Oeste 23 Oeste 0 -- -- 88
2018-08-30 06:00:00 13.8 14 Oeste 18 Oeste 0 -- -- 89
2018-08-30 05:00:00 14.5 13 Oeste 22 Oeste 0 -- -- 87
2018-08-30 04:00:00 14.9 15 Oeste 23 Oeste 0 -- -- 84
2018-08-30 03:00:00 15.6 18 Oeste 27 Oeste 0 -- -- 82
2018-08-30 02:00:00 16 15 Oeste 25 Noroeste 0 -- -- 82
2018-08-30 01:00:00 16.1 15 Oeste 24 Oeste 0 -- -- 84
2018-08-30 00:00:00 17.6 3 Oeste 7 Este 0 -- -- 94
2018-08-29 23:00:00 17.7 4 Este 11 Este 0 -- -- 95
2018-08-29 22:00:00 18.1 4 Sudeste 11 Sudeste 0 -- -- 88
2018-08-29 21:00:00 18.6 3 Noroeste 9 Noroeste 0 -- -- 83
2018-08-29 20:00:00 19.3 3 Noroeste 6 Oeste 0 -- -- 81
2018-08-29 19:00:00 19.8 2 Noroeste 7 Nordeste 0 -- -- 83
2018-08-29 18:00:00 19.9 3 Este 10 Sudeste 0 -- -- 87
2018-08-29 17:00:00 20.5 6 Este 15 Este 0 -- -- 86
2018-08-29 16:00:00 21.3 8 Este 22 Este 0 -- -- 80
2018-08-29 15:00:00 22.2 9 Este 24 Este 0 -- -- 64
2018-08-29 14:00:00 23.6 9 Este 18 Este 0 -- -- 58
2018-08-29 13:00:00 23.3 8 Este 20 Este 0 -- -- 60
2018-08-29 12:00:00 23.1 9 Este 17 Este 0 -- -- 57
2018-08-29 11:00:00 22.4 6 Este 13 Este 0 -- -- 59
2018-08-29 10:00:00 21.2 7 Oeste 16 Oeste 0 -- -- 61
2018-08-29 09:00:00 18.9 0 Calma 4 Sur 0 -- -- 67
2018-08-29 08:00:00 17.3 2 Este 7 Sudeste 0 -- -- 67
2018-08-29 07:00:00 16.6 3 Sudeste 8 Este 0 -- -- 70
2018-08-29 06:00:00 16.1 0 Calma 8 Sur 0 -- -- 67
2018-08-29 05:00:00 16.1 4 Este 10 Este 0 -- -- 71
2018-08-29 04:00:00 16.1 2 Sudeste 13 Sudeste 0 -- -- 69
2018-08-29 03:00:00 16.3 13 Noroeste 35 Oeste 0 -- -- 67
2018-08-29 02:00:00 15.7 25 Oeste 48 Oeste 0.8 -- -- 84
2018-08-29 01:00:00 17.4 10 Oeste 18 Oeste 0 -- -- 93
2018-08-29 00:00:00 17.6 7 Sudeste 22 Noroeste 0 -- -- 87
2018-08-28 23:00:00 19 16 Oeste 39 Oeste 0 -- -- 71
2018-08-28 22:00:00 19.9 10 Sudoeste 15 Sur 0 -- -- 59
2018-08-28 21:00:00 18.2 6 Sudoeste 12 Sudeste 0 -- -- 74
2018-08-28 20:00:00 18.8 5 Sur 14 Sur 0 -- -- 79
2018-08-28 19:00:00 19.6 5 Sudeste 23 Este 0 -- -- 83
2018-08-28 18:00:00 18.6 8 Sudeste 18 Sur 0.2 -- -- 80
2018-08-28 17:00:00 17.3 6 Sudeste 41 Sudeste 6.6 -- -- 90
2018-08-28 16:00:00 19.4 9 Este 24 Este 0 -- -- 96
2018-08-28 15:00:00 22 10 Este 25 Este 0 -- -- 83
2018-08-28 14:00:00 23.9 7 Este 21 Este 0 -- -- 68
2018-08-28 13:00:00 23.8 10 Este 21 Este 0 -- -- 70
2018-08-28 12:00:00 23.4 7 Este 14 Este 0 -- -- 74
2018-08-28 11:00:00 21.5 5 Este 12 Este 0 -- -- 80
2018-08-28 10:00:00 20.6 5 Este 14 Este 0 -- -- 83
2018-08-28 09:00:00 19.2 5 Sudeste 16 Sur 0 -- -- 87
2018-08-28 08:00:00 17.1 2 Este 10 Sudeste 0 -- -- 93
2018-08-28 07:00:00 16.7 0 Calma 15 Este 0 -- -- 95
2018-08-28 06:00:00 16.9 2 Sudeste 12 Sur 0 -- -- 88
2018-08-28 05:00:00 17.3 3 Sudeste 14 Sudeste 0 -- -- 92
2018-08-28 04:00:00 17.7 4 Sudeste 12 Sudeste 0 -- -- 96
2018-08-28 03:00:00 17.7 4 Sudeste 14 Sudeste 0 -- -- 94
2018-08-28 02:00:00 18.1 3 Sudeste 10 Sudeste 0 -- -- 96
2018-08-28 01:00:00 17.7 2 Este 6 Sudeste 0 -- -- 95
2018-08-28 00:00:00 18 2 Este 6 Este 0 -- -- 93
2018-08-27 23:00:00 18.1 3 Sur 6 Sur 0 -- -- 91
2018-08-27 22:00:00 18.7 2 Noroeste 4 Noroeste -- -- -- 92
2018-08-27 21:00:00 19.6 2 Este 10 Este 0 -- -- 92
2018-08-27 20:00:00 20.1 6 Este 15 Sudeste 0 -- -- 90
2018-08-27 19:00:00 21 8 Este 18 Este 0 -- -- 86
2018-08-27 18:00:00 21.3 10 Este 24 Este 0 -- -- 85
2018-08-27 17:00:00 22.4 10 Este 24 Este 0 -- -- 82
2018-08-27 16:00:00 23.6 7 Este 23 Este 0 -- -- 78
2018-08-27 15:00:00 23.4 10 Este 21 Este 0 -- -- 77
2018-08-27 14:00:00 24 9 Sudeste 23 Este 0 -- -- 70
2018-08-27 13:00:00 23.2 10 Este 22 Este 0 -- -- 69
2018-08-27 12:00:00 22.4 9 Este 20 Este 0 -- -- 69
2018-08-27 11:00:00 21.5 7 Este 15 Este 0 -- -- 68
2018-08-27 10:00:00 21 6 Este 11 Nordeste 0 -- -- 68
2018-08-27 09:00:00 19.9 4 Este 6 Este 0 -- -- 57
2018-08-27 08:00:00 16.2 4 Oeste 9 Oeste 0 -- -- 70
2018-08-27 07:00:00 16.4 6 Oeste 12 Oeste 0 -- -- 65
2018-08-27 06:00:00 17.1 8 Oeste 13 Oeste 0 -- -- 59
2018-08-27 05:00:00 17.1 10 Oeste 15 Noroeste 0 -- -- 58
2018-08-27 04:00:00 16.2 9 Oeste 11 Oeste 0 -- -- 61
2018-08-27 03:00:00 16.3 5 Oeste 9 Oeste 0 -- -- 60
2018-08-27 02:00:00 15.7 5 Oeste 7 Oeste 0 -- -- 63
2018-08-27 01:00:00 16.6 6 Sudoeste 11 Oeste 0 -- -- 68
2018-08-27 00:00:00 15.5 6 Oeste 9 Sudoeste 0 -- -- 82
2018-08-26 23:00:00 16 7 Sudoeste 9 Sudoeste 0 -- -- 84
2018-08-26 22:00:00 16.2 6 Sudoeste 10 Sudoeste 0 -- -- 83
2018-08-26 21:00:00 17.4 4 Sudoeste 8 Sudoeste 0 -- -- 80
2018-08-26 20:00:00 19.4 3 Sudeste 9 Oeste 0 -- -- 73
2018-08-26 19:00:00 19.5 5 Este 13 Este 0 -- -- 73
2018-08-26 18:00:00 20.8 6 Sudeste 20 Este 0 -- -- 66
2018-08-26 17:00:00 20.8 7 Este 20 Este 0 -- -- 63
2018-08-26 16:00:00 20.8 10 Este 26 Este 0 -- -- 62
2018-08-26 15:00:00 21.4 9 Este 21 Este 0 -- -- 60
2018-08-26 14:00:00 21.4 7 Este 23 Este 0 -- -- 58
2018-08-26 13:00:00 20.4 9 Este 21 Sudeste 0 -- -- 58
2018-08-26 12:00:00 20 6 Sudeste 25 Sudeste 0 -- -- 59
2018-08-26 11:00:00 18.8 8 Sudeste 23 Sur 0 -- -- 61
2018-08-26 10:00:00 16.8 5 Sudeste 18 Sudoeste 0 -- -- 66
2018-08-26 09:00:00 14.5 5 Sur 12 Sur 0 -- -- 72
2018-08-26 08:00:00 11.1 7 Sudoeste 15 Sudoeste 0 -- -- 80
2018-08-26 07:00:00 10.7 10 Oeste 17 Oeste 0 -- -- 78
2018-08-26 06:00:00 10.7 13 Oeste 26 Oeste 0 -- -- 77
2018-08-26 05:00:00 11 19 Oeste 33 Oeste 0 -- -- 77
2018-08-26 04:00:00 11.4 19 Oeste 36 Oeste 0 -- -- 75
2018-08-26 03:00:00 12.2 22 Oeste 39 Oeste 0 -- -- 74
2018-08-26 02:00:00 12.6 22 Oeste 36 Oeste 0 -- -- 72
2018-08-26 01:00:00 13.1 21 Oeste 37 Oeste 0 -- -- 70
2018-08-26 00:00:00 13.5 22 Oeste 38 Oeste 0 -- -- 69
2018-08-25 23:00:00 14.7 17 Oeste 37 Oeste 0 -- -- 66
2018-08-25 22:00:00 15.6 20 Oeste 39 Oeste 0 -- -- 62
2018-08-25 21:00:00 16.4 17 Noroeste 28 Noroeste 0 -- -- 60
2018-08-25 20:00:00 18.5 10 Oeste 21 Noroeste 0 -- -- 53
2018-08-25 19:00:00 20.3 9 Noroeste 22 Oeste 0 -- -- 50
2018-08-25 18:00:00 21.5 8 Noroeste 20 Noroeste 0 -- -- 46
2018-08-25 17:00:00 22.7 7 Norte 32 Oeste 0 -- -- 42
2018-08-25 16:00:00 23.2 15 Noroeste 30 Noroeste 0 -- -- 43
2018-08-25 15:00:00 22.5 13 Oeste 29 Oeste 0 -- -- 47
2018-08-25 14:00:00 21.6 14 Oeste 30 Oeste 0 -- -- 51
2018-08-25 13:00:00 20.2 14 Oeste 30 Noroeste 0 -- -- 53
2018-08-25 12:00:00 18 17 Oeste 31 Oeste 0 -- -- 62
2018-08-25 11:00:00 16.1 21 Oeste 38 Oeste 0 -- -- 68
2018-08-25 10:00:00 13.6 27 Oeste 48 Oeste 0 -- -- 75
2018-08-25 09:00:00 12.1 26 Oeste 42 Oeste 0 -- -- 84
2018-08-25 08:00:00 10.8 22 Oeste 33 Noroeste 0 -- -- 90
2018-08-25 07:00:00 10.9 19 Oeste 35 Oeste 0 -- -- 88
2018-08-25 06:00:00 11.4 21 Oeste 33 Oeste 0 -- -- 87
2018-08-25 05:00:00 11.9 23 Oeste 36 Noroeste 0 -- -- 84
2018-08-25 04:00:00 12.9 19 Oeste 35 Oeste 0 -- -- 79
2018-08-25 03:00:00 13.1 22 Oeste 35 Oeste 0 -- -- 79
2018-08-25 02:00:00 13.5 23 Oeste 37 Oeste 0 -- -- 81
2018-08-25 01:00:00 14.1 19 Noroeste 37 Oeste 0 -- -- 80
2018-08-25 00:00:00 14.5 19 Noroeste 44 Noroeste 0 -- -- 78
2018-08-24 23:00:00 15.7 26 Noroeste 51 Noroeste 0 -- -- 74
2018-08-24 22:00:00 17.3 24 Noroeste 49 Oeste 0 -- -- 68
2018-08-24 21:00:00 18.3 20 Noroeste 37 Oeste 0 -- -- 63
2018-08-24 20:00:00 19.9 19 Noroeste 37 Oeste 0 -- -- 59
2018-08-24 19:00:00 21.7 17 Noroeste 38 Oeste 0 -- -- 54
2018-08-24 18:00:00 23.5 18 Noroeste 38 Oeste 0 -- -- 49
2018-08-24 17:00:00 24.4 14 Noroeste 36 Noroeste 0 -- -- 47
2018-08-24 16:00:00 24.1 17 Noroeste 36 Noroeste 0 -- -- 46
2018-08-24 15:00:00 23.6 15 Noroeste 39 Noroeste 0 -- -- 48
2018-08-24 14:00:00 22.2 22 Noroeste 41 Noroeste 0 -- -- 51
2018-08-24 13:00:00 21.2 19 Noroeste 37 Oeste 0 -- -- 58
2018-08-24 12:00:00 19.5 21 Noroeste 38 Oeste 0 -- -- 63
2018-08-24 11:00:00 17.4 23 Oeste 44 Oeste 0 -- -- 71
2018-08-24 10:00:00 15.6 27 Oeste 45 Oeste 0 -- -- 80
2018-08-24 09:00:00 14.1 28 Oeste 48 Oeste 0 -- -- 85
2018-08-24 08:00:00 13.3 28 Oeste 48 Noroeste 0 -- -- 88
2018-08-24 07:00:00 13.4 30 Oeste 54 Oeste 0 -- -- 89
2018-08-24 06:00:00 14.1 27 Oeste 47 Oeste 0 -- -- 89
2018-08-24 05:00:00 14.3 30 Oeste 49 Noroeste 0 -- -- 88
2018-08-24 04:00:00 15 28 Oeste 51 Noroeste 0 -- -- 84
2018-08-24 03:00:00 15.6 31 Oeste 50 Oeste 0 -- -- 83
2018-08-24 02:00:00 16.4 25 Noroeste 55 Noroeste 0 -- -- 83
2018-08-24 01:00:00 17.3 31 Oeste 53 Noroeste 0 -- -- 80
2018-08-24 00:00:00 18.5 22 Noroeste 36 Oeste 0 -- -- 69
2018-08-23 23:00:00 18.4 18 Oeste 33 Oeste 0.2 -- -- 70
2018-08-23 22:00:00 18.1 10 Oeste 18 Oeste 0 -- -- 70
2018-08-23 21:00:00 18.2 8 Oeste 14 Oeste 0 -- -- 69
2018-08-23 20:00:00 19.2 4 Oeste 11 Sudoeste 0 -- -- 73
2018-08-23 19:00:00 19.4 8 Sudoeste 19 Sudoeste 0 -- -- 76
2018-08-23 18:00:00 19.2 9 Sudoeste 15 Sur 0.8 -- -- 80
2018-08-23 17:00:00 22.1 4 Sur 17 Este 0 -- -- 66
2018-08-23 16:00:00 21.6 7 Este 16 Este 0 -- -- 77
2018-08-23 15:00:00 22.6 5 Sudeste 18 Este 0 -- -- 70
2018-08-23 14:00:00 23.5 8 Este 19 Este -- -- -- 64
2018-08-23 13:00:00 24 6 Este 18 Este 0 -- -- 65
2018-08-23 12:00:00 24.2 4 Oeste 12 Este 0 -- -- 58
2018-08-23 11:00:00 23.3 5 Oeste 14 Noroeste 0 -- -- 56
2018-08-23 10:00:00 21.4 10 Oeste 18 Oeste 0 -- -- 62
2018-08-23 09:00:00 19.3 12 Oeste 18 Oeste 0 -- -- 64
2018-08-23 08:00:00 17.3 14 Oeste 20 Oeste 0 -- -- 64
2018-08-23 07:00:00 17 13 Oeste 18 Oeste 0 -- -- 64
2018-08-23 06:00:00 16.3 12 Oeste 15 Oeste 0 -- -- 68
2018-08-23 05:00:00 18.1 2 Sudeste 5 Sudeste 0 -- -- 64
2018-08-23 04:00:00 18 2 Sudeste 9 Sur 0 -- -- 62
2018-08-23 03:00:00 17.8 2 Sur 7 Sur 0 -- -- 60
2018-08-23 02:00:00 18 0 Calma 9 Sur 0 -- -- 63
2018-08-23 01:00:00 18.7 4 Sur 11 Este 0 -- -- 60
2018-08-23 00:00:00 17.5 4 Sur 9 Sur 0 -- -- 63